< < Back
Terminal Aerodrome Forecast


Current Version              Previous Versions:   1  2  3  4  5  6  7  8  9  

Terminal Aerodrome Forecast

537
FTUS44 KBMX 291233 AAA
TAFMGM
TAF AMD
KMGM 291233Z 2913/3012 VRB03KT P6SM SCT005 BKN060
      TEMPO 2913/2914 BKN005 BKN060
     FM291400 VRB03KT P6SM BKN015
     FM291500 15005KT P6SM BKN100
     FM291900 16005KT P6SM VCTS BKN050CB
     FM300100 14003KT P6SM BKN120
      TEMPO 3010/3012 5SM BR=

Latest METAR

259
SAUS80 KWBC 291600 RRA
MTRMGM
METAR KMGM 291553Z VRB03KT 10SM CLR 27/22 A3018 RMK AO2 SLP216
T02720217


USA.gov is the U.S. government's official web portal to all federal, state and local government web resources and services.